Time;durP1;ratioP1;P1;durP2;ratioP2;P2;SDS_P1;SDS_P2;PMS_P1;PMS_P2;Temp;Humidity;BMP_temperature;BMP_pressure;BME280_temperature;BME280_humidity;BME280_pressure;Samples;Min_cycle;Max_cycle;Signal;HPM_P1;HPM_P2
2022/12/19 00:01:00;;;;;;;;;;;;;;;-4.45;100.00;101139.00;4958600;28;20054;-86
2022/12/19 00:03:26;;;;;;;35.05;15.15;;;;;;;-4.54;100.00;101119.38;4958956;28;19910;-87
2022/12/19 00:05:51;;;;;;;34.90;13.35;;;;;;;-4.48;100.00;101134.75;4978040;28;20030;-86
2022/12/19 00:08:17;;;;;;;;;;;;;;;-4.53;100.00;101126.25;4984322;28;20033;-87
2022/12/19 00:10:42;;;;;;;33.60;12.63;;;;;;;-4.51;100.00;101140.09;4978323;28;19960;-87
2022/12/19 00:13:08;;;;;;;;;;;;;;;-4.49;100.00;101146.09;4981525;28;20180;-87
2022/12/19 00:15:34;;;;;;;38.58;14.23;;;;;;;-4.52;100.00;101140.13;5004645;28;20004;-86
2022/12/19 00:17:59;;;;;;;33.85;14.55;;;;;;;-4.49;100.00;101137.44;4979518;28;20073;-87
2022/12/19 00:20:25;;;;;;;39.75;15.55;;;;;;;-4.50;100.00;101140.94;4962687;28;20483;-86
2022/12/19 00:22:50;;;;;;;30.27;13.63;;;;;;;-4.54;100.00;101131.53;4963198;28;20046;-86
2022/12/19 00:25:16;;;;;;;;;;;;;;;-4.46;100.00;101158.16;4963401;28;20081;-86
2022/12/19 00:27:41;;;;;;;37.83;15.40;;;;;;;-4.55;100.00;101158.50;4969013;28;19926;-86
2022/12/19 00:30:07;;;;;;;32.63;12.50;;;;;;;-4.51;100.00;101166.16;4960757;28;20269;-86
2022/12/19 00:32:32;;;;;;;33.80;14.02;;;;;;;-4.57;100.00;101163.75;4962912;28;20042;-86
2022/12/19 00:34:57;;;;;;;38.45;14.77;;;;;;;-4.45;100.00;101191.13;4976138;28;20035;-87
2022/12/19 00:37:23;;;;;;;39.50;13.57;;;;;;;-4.49;100.00;101179.13;4970040;28;20387;-87
2022/12/19 00:39:48;;;;;;;;;;;;;;;-4.55;100.00;101174.97;4979490;28;20065;-87
2022/12/19 00:42:13;;;;;;;34.47;14.03;;;;;;;-4.51;100.00;101193.97;4995510;28;19918;-87
2022/12/19 00:44:40;;;;;;;35.03;13.60;;;;;;;-4.55;100.00;101182.78;4977395;28;20045;-87
2022/12/19 00:47:05;;;;;;;30.38;13.30;;;;;;;-4.59;100.00;101160.38;4975642;28;20137;-86
2022/12/19 00:49:30;;;;;;;;;;;;;;;-4.61;100.00;101170.00;4964153;28;20034;-86
2022/12/19 00:51:58;;;;;;;44.90;15.97;;;;;;;-4.72;100.00;101178.19;4963364;28;19914;-86
2022/12/19 00:54:24;;;;;;;37.33;13.90;;;;;;;-4.63;100.00;101199.63;4975936;28;20034;-87
2022/12/19 00:56:49;;;;;;;38.85;14.35;;;;;;;-4.68;100.00;101192.81;4977661;28;20034;-86
2022/12/19 00:59:14;;;;;;;;;;;;;;;-4.60;100.00;101200.34;4979756;28;20046;-87
2022/12/19 01:01:40;;;;;;;35.57;14.20;;;;;;;-4.67;100.00;101202.31;4974755;28;19922;-86
2022/12/19 01:04:06;;;;;;;;;;;;;;;-4.61;100.00;101211.69;4980463;28;20034;-87
2022/12/19 01:06:32;;;;;;;36.88;13.55;;;;;;;-4.61;100.00;101198.66;4995781;28;20401;-87
2022/12/19 01:08:58;;;;;;;34.28;13.07;;;;;;;-4.57;100.00;101207.22;4963693;28;20042;-86
2022/12/19 01:14:07;;;;;;;35.10;14.07;;;;;;;-4.52;100.00;101187.03;4974102;28;19924;-87
2022/12/19 01:16:32;;;;;;;31.48;14.02;;;;;;;-4.55;100.00;101174.13;4972220;28;20121;-86
2022/12/19 01:18:58;;;;;;;;;;;;;;;-4.49;100.00;101192.16;4959093;28;20495;-86
2022/12/19 01:21:23;;;;;;;37.35;14.52;;;;;;;-4.51;100.00;101180.94;4971601;28;19925;-86
2022/12/19 01:23:50;;;;;;;31.52;13.00;;;;;;;-4.51;100.00;101179.19;4989831;28;20068;-86
2022/12/19 01:26:15;;;;;;;38.88;15.15;;;;;;;-4.56;100.00;101180.25;4977995;28;20070;-84
2022/12/19 01:28:40;;;;;;;;;;;;;;;-4.48;100.00;101193.84;4982673;28;20029;-86
2022/12/19 01:31:06;;;;;;;32.77;13.80;;;;;;;-4.41;100.00;101215.34;4981397;28;19922;-86
2022/12/19 01:33:33;;;;;;;32.05;12.50;;;;;;;-4.45;100.00;101201.56;4965049;28;20869;-87
2022/12/19 01:36:06;;;;;;;40.00;14.52;;;;;;;-4.42;100.00;101222.31;4979513;28;20109;-85
2022/12/19 01:38:33;;;;;;;32.90;13.48;;;;;;;-4.43;100.00;101217.16;4992413;28;20049;-85
2022/12/19 01:41:00;;;;;;;34.40;15.20;;;;;;;-4.46;100.00;101231.16;4975606;28;20026;-86
2022/12/19 01:43:29;;;;;;;34.97;14.10;;;;;;;-4.43;100.00;101233.63;4971430;28;20041;-85
2022/12/19 01:46:02;;;;;;;40.58;15.02;;;;;;;-4.40;100.00;101258.72;4979844;28;20046;-86
2022/12/19 01:48:32;;;;;;;42.05;15.65;;;;;;;-4.42;100.00;101268.38;4975249;28;20038;-85
2022/12/19 01:51:10;;;;;;;34.05;12.75;;;;;;;-4.36;100.00;101284.66;4992483;28;20033;-87
2022/12/19 01:53:41;;;;;;;32.75;13.88;;;;;;;-4.33;100.00;101276.72;4975712;28;20050;-86
2022/12/19 01:56:09;;;;;;;29.95;13.10;;;;;;;-4.39;100.00;101245.66;4981268;28;20038;-85
2022/12/19 01:58:42;;;;;;;30.65;13.40;;;;;;;-4.36;100.00;101249.91;4960897;28;28326;-87
2022/12/19 02:01:07;;;;;;;38.05;14.65;;;;;;;-4.37;100.00;101253.44;5016256;28;20052;-86
2022/12/19 02:03:35;;;;;;;31.58;13.48;;;;;;;-4.40;100.00;101254.41;5014373;28;20466;-85
2022/12/19 02:06:04;;;;;;;35.15;13.50;;;;;;;-4.31;100.00;101259.28;4998558;28;20042;-85
2022/12/19 02:08:30;;;;;;;30.83;12.77;;;;;;;-4.28;100.00;101259.16;5046528;28;20080;-86
2022/12/19 02:10:56;;;;;;;38.97;15.20;;;;;;;-4.35;100.00;101223.78;5000671;28;20201;-86
2022/12/19 02:13:58;;;;;;;42.25;14.88;;;;;;;-4.36;100.00;101218.63;5025910;28;20065;-86
2022/12/19 02:16:46;;;;;;;40.38;17.30;;;;;;;-4.38;100.00;101220.44;4952211;28;20123;-86
2022/12/19 02:19:30;;;;;;;32.00;12.73;;;;;;;-4.34;100.00;101238.53;4932994;29;20063;-85
2022/12/19 02:22:19;;;;;;;38.13;15.98;;;;;;;-4.34;100.00;101232.47;4923062;29;20039;-86
2022/12/19 02:25:06;;;;;;;38.38;13.77;;;;;;;-4.28;100.00;101232.25;4932257;29;20039;-86
2022/12/19 02:27:54;;;;;;;41.60;14.80;;;;;;;-4.30;100.00;101203.63;4912982;29;20123;-86
2022/12/19 02:31:05;;;;;;;29.23;12.18;;;;;;;-4.21;100.00;101227.63;4926573;29;20047;-86
2022/12/19 02:33:48;;;;;;;33.35;13.35;;;;;;;-4.26;100.00;101212.19;4893048;29;20121;-85
2022/12/19 02:36:23;;;;;;;37.80;15.07;;;;;;;-4.29;100.00;101215.72;4906587;29;20049;-86
2022/12/19 02:39:05;;;;;;;32.13;15.07;;;;;;;-4.21;100.00;101227.63;4878034;29;20059;-85
2022/12/19 02:41:43;;;;;;;33.72;14.85;;;;;;;-4.18;100.00;101230.16;4885042;29;20036;-86
2022/12/19 02:44:21;;;;;;;38.55;16.17;;;;;;;-4.19;100.00;101211.06;4893429;29;20078;-86
2022/12/19 02:46:48;;;;;;;31.55;13.25;;;;;;;-4.22;100.00;101203.31;4887497;29;20086;-86
2022/12/19 02:49:14;;;;;;;38.13;14.02;;;;;;;-4.14;100.00;101223.94;4878783;28;20227;-86
2022/12/19 02:51:39;;;;;;;34.47;13.13;;;;;;;-4.05;100.00;101233.97;4955252;28;20026;-86
2022/12/19 02:54:07;;;;;;;32.13;13.52;;;;;;;-4.11;100.00;101205.53;4955362;28;20046;-85
2022/12/19 02:56:58;;;;;;;32.28;14.45;;;;;;;-4.10;100.00;101208.09;4955230;28;20026;-86
2022/12/19 02:59:50;;;;;;;30.88;12.43;;;;;;;-4.06;100.00;101238.34;4966912;28;20089;-86
2022/12/19 03:02:38;;;;;;;36.58;15.35;;;;;;;-4.06;100.00;101227.94;4952727;28;20590;-85
2022/12/19 03:05:30;;;;;;;30.23;14.35;;;;;;;-4.00;100.00;101246.84;4963469;28;20054;-86
2022/12/19 03:08:03;;;;;;;41.10;14.65;;;;;;;-3.97;100.00;101263.25;4982309;28;20498;-86
2022/12/19 03:10:44;;;;;;;29.88;12.98;;;;;;;-3.89;100.00;101276.84;5009032;28;20036;-86
2022/12/19 03:13:15;;;;;;;40.38;14.98;;;;;;;-3.89;100.00;101263.81;5012774;28;20051;-86
2022/12/19 03:15:42;;;;;;;36.10;13.95;;;;;;;-4.03;100.00;101224.34;5028770;28;20104;-86
2022/12/19 03:18:08;;;;;;;34.05;13.50;;;;;;;-4.02;100.00;101231.28;4996278;28;20029;-85
2022/12/19 03:20:44;;;;;;;34.90;15.27;;;;;;;-4.00;100.00;101231.22;5011977;28;20036;-86
2022/12/19 03:23:10;;;;;;;;;;;;;;;-3.94;100.00;101251.84;5012653;28;20117;-86
2022/12/19 03:25:37;;;;;;;26.83;11.80;;;;;;;-3.93;100.00;101253.56;5028249;28;19920;-85
2022/12/19 03:28:07;;;;;;;35.05;14.90;;;;;;;-3.98;100.00;101240.69;4995650;28;20116;-86
2022/12/19 03:30:34;;;;;;;32.60;13.77;;;;;;;-3.93;100.00;101249.19;5012231;28;20641;-85
2022/12/19 03:33:01;;;;;;;32.92;15.55;;;;;;;-3.91;100.00;101252.59;5039864;28;20033;-86
2022/12/19 03:35:30;;;;;;;33.97;12.95;;;;;;;-3.94;100.00;101242.25;4991589;28;20128;-86
2022/12/19 03:37:59;;;;;;;41.72;16.40;;;;;;;-3.88;100.00;101247.25;5012020;28;20115;-86
2022/12/19 03:40:27;;;;;;;30.48;14.45;;;;;;;-3.85;100.00;101241.91;5007628;28;20553;-86
2022/12/19 03:43:09;;;;;;;33.75;14.07;;;;;;;-3.78;100.00;101247.75;4995327;28;20117;-85
2022/12/19 03:45:56;;;;;;;32.75;13.73;;;;;;;-3.68;100.00;101263.91;5009074;28;20037;-86
2022/12/19 03:48:41;;;;;;;31.48;13.57;;;;;;;-3.67;100.00;101244.75;5023492;28;20034;-85
2022/12/19 03:51:25;;;;;;;35.97;13.50;;;;;;;-3.66;100.00;101236.84;5013959;28;20033;-85
2022/12/19 03:53:59;;;;;;;38.55;15.38;;;;;;;-3.64;100.00;101219.38;5012239;28;20037;-86
2022/12/19 03:56:53;;;;;;;33.88;12.55;;;;;;;-3.58;100.00;101226.13;5030068;28;20034;-86
2022/12/19 03:59:32;;;;;;;33.22;14.30;;;;;;;-3.58;100.00;101233.97;5009043;28;20038;-86
2022/12/19 04:01:58;;;;;;;31.63;13.68;;;;;;;-3.58;100.00;101213.06;5013965;28;20112;-85
2022/12/19 04:04:25;;;;;;;39.25;16.05;;;;;;;-3.50;100.00;101229.28;5016064;28;20463;-85
2022/12/19 04:06:52;;;;;;;34.45;15.40;;;;;;;-3.54;100.00;101219.00;5030245;28;20037;-86
2022/12/19 04:09:21;;;;;;;33.22;13.95;;;;;;;-3.52;100.00;101228.47;5031778;28;20041;-85
2022/12/19 04:11:59;;;;;;;33.88;14.82;;;;;;;-3.46;100.00;101249.13;5028294;28;20056;-86
2022/12/19 04:14:32;;;;;;;30.70;15.45;;;;;;;-3.45;100.00;101248.22;5028277;28;20092;-86
2022/12/19 04:17:06;;;;;;;34.17;14.68;;;;;;;-3.41;100.00;101260.25;4995390;28;20872;-86
2022/12/19 04:19:50;;;;;;;39.13;15.05;;;;;;;-3.38;100.00;101266.25;5024716;28;20107;-86
2022/12/19 04:22:24;;;;;;;38.92;14.27;;;;;;;-3.44;100.00;101270.81;5011899;28;20049;-86
2022/12/19 04:24:51;;;;;;;40.45;15.55;;;;;;;-3.39;100.00;101281.06;5011500;28;20033;-86
2022/12/19 04:27:19;;;;;;;31.48;13.82;;;;;;;-3.38;100.00;101271.47;4999160;28;20017;-85
2022/12/19 04:29:51;;;;;;;35.92;14.05;;;;;;;-3.41;100.00;101273.28;5011770;28;20104;-86
2022/12/19 04:32:18;;;;;;;33.15;14.57;;;;;;;-3.46;100.00;101272.63;5008149;28;20072;-86
2022/12/19 04:34:43;;;;;;;32.08;14.35;;;;;;;-3.37;100.00;101291.44;5026615;28;20486;-86
2022/12/19 04:37:09;;;;;;;32.97;13.80;;;;;;;-3.44;100.00;101278.66;5028389;28;20036;-86
2022/12/19 04:39:35;;;;;;;32.92;14.18;;;;;;;-3.42;100.00;101287.28;4998839;28;20037;-86
2022/12/19 04:42:00;;;;;;;44.90;16.73;;;;;;;-3.38;100.00;101298.44;5011628;28;20128;-86
2022/12/19 04:44:25;;;;;;;38.90;14.80;;;;;;;-3.43;100.00;101293.38;5012362;28;20052;-86
2022/12/19 04:46:51;;;;;;;35.83;15.82;;;;;;;-3.36;100.00;101316.66;5012140;28;20033;-86
2022/12/19 04:49:17;;;;;;;;;;;;;;;-3.40;100.00;101306.31;5015290;28;20116;-86
2022/12/19 04:51:42;;;;;;;37.60;14.18;;;;;;;-3.40;100.00;101321.97;5015127;28;20014;-85
2022/12/19 04:54:07;;;;;;;37.22;15.82;;;;;;;-3.37;100.00;101322.78;5015632;28;20037;-86
2022/12/19 04:56:33;;;;;;;41.65;15.48;;;;;;;-3.34;100.00;101338.34;5014971;28;20069;-86
2022/12/19 04:58:59;;;;;;;39.13;15.63;;;;;;;-3.31;100.00;101356.50;5020728;28;20029;-87
2022/12/19 05:01:24;;;;;;;;;;;;;;;-3.31;100.00;101356.50;5032462;28;20045;-89
2022/12/19 05:03:50;;;;;;;35.35;15.02;;;;;;;-3.30;100.00;101369.50;5016282;28;19913;-86
2022/12/19 05:06:16;;;;;;;39.58;15.30;;;;;;;-3.33;100.00;101373.97;5015279;28;20041;-86
2022/12/19 05:08:42;;;;;;;35.22;14.70;;;;;;;-3.35;100.00;101375.78;5015003;28;20040;-86
2022/12/19 05:11:08;;;;;;;;;;;;;;;-3.30;100.00;101392.13;4999354;28;20382;-85
2022/12/19 05:13:34;;;;;;;39.25;17.25;;;;;;;-3.24;100.00;101410.19;5015124;28;19912;-86
2022/12/19 05:16:03;;;;;;;38.40;14.25;;;;;;;-3.22;100.00;101411.84;4998859;28;20056;-87
2022/12/19 05:18:29;;;;;;;37.55;16.95;;;;;;;-3.20;100.00;101422.22;4999032;28;20042;-86
2022/12/19 05:20:54;;;;;;;39.15;15.55;;;;;;;-3.20;100.00;101419.63;4998866;28;20460;-87
2022/12/19 05:23:21;;;;;;;33.97;14.90;;;;;;;-3.14;100.00;101429.81;5032499;28;20032;-86
2022/12/19 05:25:46;;;;;;;41.83;15.30;;;;;;;-3.05;100.00;101439.91;5012863;28;20033;-87
2022/12/19 05:28:12;;;;;;;38.20;16.27;;;;;;;-3.10;100.00;101422.72;5031017;28;20038;-86
2022/12/19 05:30:37;;;;;;;36.45;14.95;;;;;;;-3.03;100.00;101432.03;5014047;28;20080;-86
2022/12/19 05:33:03;;;;;;;;;;;;;;;-3.05;100.00;101419.03;5017202;28;20418;-87
2022/12/19 05:35:28;;;;;;;33.15;14.13;;;;;;;-3.06;100.00;101419.94;5016764;28;19916;-86
2022/12/19 05:37:53;;;;;;;;;;;;;;;-3.02;100.00;101412.81;5042611;23;20099;-71
2022/12/19 05:40:19;;;;;;;36.20;13.47;;;;;;;-2.98;100.00;101420.47;5027103;28;19971;-71
2022/12/19 05:42:44;;;;;;;35.83;14.23;;;;;;;-2.93;100.00;101414.22;5018580;28;20478;-71
2022/12/19 05:45:10;;;;;;;39.28;13.73;;;;;;;-2.93;100.00;101414.22;5017820;28;20084;-71
2022/12/19 05:47:35;;;;;;;33.53;14.00;;;;;;;-2.92;100.00;101413.34;5005957;28;20478;-70
2022/12/19 05:50:00;;;;;;;35.67;14.02;;;;;;;-2.90;100.00;101408.88;5017843;28;20026;-71
2022/12/19 05:52:26;;;;;;;31.58;13.82;;;;;;;-2.84;100.00;101409.50;5020357;28;20049;-71
2022/12/19 05:54:51;;;;;;;41.25;15.75;;;;;;;-2.78;100.00;101408.41;5017148;28;20026;-71
2022/12/19 05:57:17;;;;;;;33.55;13.45;;;;;;;-2.83;100.00;101386.84;5019357;28;20083;-70
2022/12/19 05:59:42;;;;;;;32.10;13.20;;;;;;;-2.85;100.00;101373.84;5018581;28;20029;-71
2022/12/19 06:02:07;;;;;;;42.45;15.57;;;;;;;-2.81;100.00;101379.78;5007343;28;20387;-71
2022/12/19 06:04:36;;;;;;;37.40;14.48;;;;;;;-2.75;100.00;101390.00;5020054;28;20057;-71
2022/12/19 06:07:02;;;;;;;33.22;14.07;;;;;;;-2.65;100.00;101387.84;5017703;28;20034;-71
2022/12/19 06:09:28;;;;;;;32.45;13.38;;;;;;;-2.66;100.00;101384.41;5008433;28;20045;-71
2022/12/19 06:11:53;;;;;;;33.10;13.68;;;;;;;-2.69;100.00;101379.31;5000508;28;20535;-71
2022/12/19 06:14:19;;;;;;;40.65;17.00;;;;;;;-2.70;100.00;101374.97;5009022;28;20041;-71
2022/12/19 06:16:44;;;;;;;38.38;15.27;;;;;;;-2.68;100.00;101369.69;5018142;28;20047;-71
2022/12/19 06:19:10;;;;;;;32.95;14.45;;;;;;;-2.67;100.00;101369.66;5016914;28;20402;-70
2022/12/19 06:21:35;;;;;;;34.90;13.82;;;;;;;-2.61;100.00;101376.38;5001475;28;20119;-71
2022/12/19 06:24:01;;;;;;;42.58;15.30;;;;;;;-2.59;100.00;101371.94;5017688;28;20030;-71
2022/12/19 06:26:26;;;;;;;37.25;14.85;;;;;;;-2.57;100.00;101375.34;5019431;28;20030;-71
2022/12/19 06:28:53;;;;;;;35.83;14.88;;;;;;;-2.55;100.00;101379.59;4999012;28;20597;-71
2022/12/19 06:31:21;;;;;;;35.50;14.43;;;;;;;-2.44;100.00;101391.38;5019253;28;20422;-71
2022/12/19 06:33:47;;;;;;;37.20;16.48;;;;;;;-2.47;100.00;101375.81;5017488;28;20033;-71
2022/12/19 06:36:17;;;;;;;37.88;15.07;;;;;;;-2.39;100.00;101376.31;5018286;28;20487;-71
2022/12/19 06:38:43;;;;;;;33.35;15.57;;;;;;;-2.34;100.00;101372.63;5002723;28;20470;-71
2022/12/19 06:43:56;;;;;;;24.35;10.65;;;;;;;-2.30;100.00;101347.16;5016537;28;20072;-71
2022/12/19 06:46:22;;;;;;;41.05;15.52;;;;;;;-2.28;100.00;101339.25;5018955;28;20984;-71
2022/12/19 06:48:47;;;;;;;37.63;14.63;;;;;;;-2.26;100.00;101334.81;5016790;28;20045;-71
2022/12/19 06:51:13;;;;;;;36.72;16.83;;;;;;;-2.25;100.00;101326.03;5017649;28;20471;-71
2022/12/19 06:53:39;;;;;;;37.78;16.42;;;;;;;-2.16;100.00;101341.34;5003795;28;20053;-71
2022/12/19 06:56:04;;;;;;;40.30;15.77;;;;;;;-2.20;100.00;101337.16;5016916;28;20177;-71
2022/12/19 06:58:32;;;;;;;32.15;14.85;;;;;;;-2.18;100.00;101344.06;5004541;28;20042;-71
2022/12/19 07:00:57;;;;;;;32.42;14.70;;;;;;;-2.13;100.00;101343.84;5015148;28;20192;-70
2022/12/19 07:03:27;;;;;;;30.00;15.35;;;;;;;-2.13;100.00;101339.47;5019165;28;20123;-70
2022/12/19 07:05:52;;;;;;;35.63;15.80;;;;;;;-2.10;100.00;101332.41;5001500;28;20069;-70
2022/12/19 07:08:18;;;;;;;32.42;14.20;;;;;;;-2.06;100.00;101340.06;5007785;28;20037;-71
2022/12/19 07:10:43;;;;;;;34.92;15.50;;;;;;;-2.04;100.00;101347.81;5004418;28;20037;-71
2022/12/19 07:13:09;;;;;;;39.38;14.35;;;;;;;-2.06;100.00;101336.56;5006587;28;20036;-70
2022/12/19 07:15:35;;;;;;;36.17;16.13;;;;;;;-2.03;100.00;101328.59;5018217;28;20037;-71
2022/12/19 07:18:02;;;;;;;34.25;15.60;;;;;;;-2.01;100.00;101327.59;5016290;28;20061;-71
2022/12/19 07:20:30;;;;;;;32.20;13.93;;;;;;;-2.01;100.00;101326.78;5018505;28;20045;-71
2022/12/19 07:22:55;;;;;;;44.33;15.57;;;;;;;-1.96;100.00;101335.25;5018519;28;20065;-70
2022/12/19 07:25:21;;;;;;;33.70;15.95;;;;;;;-1.90;100.00;101340.19;5018677;28;20060;-71
2022/12/19 07:27:47;;;;;;;29.30;14.18;;;;;;;-1.92;100.00;101334.19;5016602;28;20042;-71
2022/12/19 07:30:12;;;;;;;36.55;16.50;;;;;;;-1.93;100.00;101335.13;5017247;28;20099;-71
2022/12/19 07:32:38;;;;;;;36.38;17.40;;;;;;;-1.89;100.00;101330.59;5017423;28;20490;-71
2022/12/19 07:35:05;;;;;;;30.40;14.48;;;;;;;-1.91;100.00;101323.66;5016110;28;20038;-71
2022/12/19 07:37:31;;;;;;;39.30;16.02;;;;;;;-1.88;100.00;101335.75;5005091;28;20029;-70
2022/12/19 07:39:56;;;;;;;35.40;15.35;;;;;;;-1.83;100.00;101338.16;5003948;28;20156;-71
2022/12/19 07:42:21;;;;;;;38.53;18.38;;;;;;;-1.89;100.00;101346.31;5017021;28;20202;-71
2022/12/19 07:44:47;;;;;;;39.30;14.98;;;;;;;-1.85;100.00;101353.97;4989156;28;20073;-70
2022/12/19 07:47:12;;;;;;;38.13;14.80;;;;;;;-1.88;100.00;101356.69;5012501;28;20096;-71
2022/12/19 07:49:37;;;;;;;32.42;15.27;;;;;;;-1.78;100.00;101373.72;5017605;28;20059;-71
2022/12/19 07:52:03;;;;;;;38.15;15.95;;;;;;;-1.79;100.00;101364.13;5015674;28;20038;-71
2022/12/19 07:54:28;;;;;;;32.90;15.10;;;;;;;-1.80;100.00;101366.84;5013371;28;20048;-71
2022/12/19 07:56:53;;;;;;;36.67;16.42;;;;;;;-1.78;100.00;101376.31;4997534;28;20042;-71
2022/12/19 07:59:19;;;;;;;38.72;15.63;;;;;;;-1.64;100.00;101377.47;5018087;28;20029;-70
2022/12/19 08:01:44;;;;;;;31.08;14.13;;;;;;;-1.61;100.00;101375.56;4998534;28;20601;-71
2022/12/19 08:04:09;;;;;;;35.55;14.85;;;;;;;-1.62;100.00;101371.22;5010660;28;20049;-71
2022/12/19 08:06:35;;;;;;;38.28;17.00;;;;;;;-1.70;100.00;101355.88;5017002;28;20116;-71
2022/12/19 08:09:00;;;;;;;36.58;17.00;;;;;;;-1.63;100.00;101368.69;5004845;28;20526;-71
2022/12/19 08:11:26;;;;;;;39.35;15.57;;;;;;;-1.63;100.00;101389.66;5000528;28;20017;-70
2022/12/19 08:13:57;;;;;;;35.60;17.17;;;;;;;-1.64;100.00;101388.81;5003121;28;20112;-71
2022/12/19 08:16:25;;;;;;;39.05;16.63;;;;;;;-1.60;100.00;101389.50;5013377;28;20033;-71
2022/12/19 08:18:51;;;;;;;42.75;17.67;;;;;;;-1.59;100.00;101388.56;5015286;28;20045;-70
2022/12/19 08:21:16;;;;;;;34.63;15.65;;;;;;;-1.49;100.00;101402.97;5014623;28;20148;-71
2022/12/19 08:23:41;;;;;;;38.93;18.13;;;;;;;-1.56;100.00;101386.69;5018941;28;20029;-70
2022/12/19 08:26:14;;;;;;;37.33;15.57;;;;;;;-1.55;100.00;101387.53;5019311;28;20767;-71
2022/12/19 08:28:39;;;;;;;43.15;16.92;;;;;;;-1.56;100.00;101380.59;5020353;28;20049;-71
2022/12/19 08:31:06;;;;;;;35.97;16.10;;;;;;;-1.50;100.00;101369.81;5008073;28;20033;-70
2022/12/19 08:33:31;;;;;;;38.83;16.27;;;;;;;-1.54;100.00;101358.66;5016645;28;20033;-71
2022/12/19 08:35:56;;;;;;;42.60;17.02;;;;;;;-1.49;100.00;101371.53;5018223;28;20461;-71
2022/12/19 08:38:22;;;;;;;30.83;14.68;;;;;;;-1.39;100.00;101357.09;5021565;28;20045;-71
2022/12/19 08:40:52;;;;;;;41.10;16.75;;;;;;;-1.34;100.00;101365.59;5016554;28;20114;-71
2022/12/19 08:43:18;;;;;;;35.95;15.45;;;;;;;-1.30;100.00;101351.44;5018393;28;20132;-71
2022/12/19 08:45:44;;;;;;;37.05;15.50;;;;;;;-1.21;100.00;101350.16;5012970;28;20115;-71
2022/12/19 08:48:10;;;;;;;38.25;17.98;;;;;;;-1.29;100.00;101350.53;5015226;28;20029;-71
2022/12/19 08:50:35;;;;;;;38.20;15.05;;;;;;;-1.24;100.00;101338.97;5020539;28;20104;-71
2022/12/19 08:53:00;;;;;;;39.63;15.73;;;;;;;-1.14;100.00;101346.31;5018733;28;20037;-71
2022/12/19 08:55:26;;;;;;;36.58;15.35;;;;;;;-1.15;100.00;101333.28;5021565;28;20045;-71
2022/12/19 08:57:51;;;;;;;42.38;16.17;;;;;;;-1.16;100.00;101329.81;5015726;28;20140;-71
2022/12/19 09:00:17;;;;;;;39.55;17.52;;;;;;;-1.22;100.00;101329.25;5022141;28;20635;-71
2022/12/19 09:02:42;;;;;;;39.17;16.88;;;;;;;-1.17;100.00;101324.66;5023875;28;20043;-72
2022/12/19 09:05:08;;;;;;;37.25;15.05;;;;;;;-1.13;100.00;101334.06;5012559;28;20487;-72
2022/12/19 09:07:35;;;;;;;43.72;17.25;;;;;;;-1.16;100.00;101326.38;5015980;28;20477;-71
2022/12/19 09:10:00;;;;;;;39.42;16.10;;;;;;;-1.08;100.00;101321.59;5017790;28;20124;-71
2022/12/19 09:12:25;;;;;;;42.67;19.63;;;;;;;-1.20;100.00;101315.16;5020691;28;20108;-72
2022/12/19 09:14:51;;;;;;;48.42;20.10;;;;;;;-1.10;100.00;101323.44;5003992;28;20320;-72
2022/12/19 09:17:16;;;;;;;45.03;19.33;;;;;;;-1.00;100.00;101324.72;5019861;28;20045;-72
2022/12/19 09:19:42;;;;;;;43.15;16.98;;;;;;;-0.96;100.00;101307.91;4998978;28;20130;-72
2022/12/19 09:22:07;;;;;;;50.30;20.02;;;;;;;-0.97;100.00;101306.19;5018343;28;20041;-71
2022/12/19 09:24:32;;;;;;;41.05;18.20;;;;;;;-0.99;100.00;101308.03;5020067;28;20068;-72
2022/12/19 09:26:58;;;;;;;47.22;19.67;;;;;;;-0.93;100.00;101289.41;5006308;28;20064;-71
2022/12/19 09:29:23;;;;;;;46.20;18.05;;;;;;;-0.92;100.00;101287.63;5009297;28;20091;-72
2022/12/19 09:31:49;;;;;;;48.55;21.02;;;;;;;-1.01;100.00;101282.84;4990658;28;20037;-72
2022/12/19 09:34:15;;;;;;;47.40;19.75;;;;;;;-0.93;100.00;101286.78;5018557;28;20057;-72
2022/12/19 09:36:40;;;;;;;46.83;18.65;;;;;;;-0.86;100.00;101282.94;5012085;28;20504;-71
2022/12/19 09:39:05;;;;;;;44.33;18.50;;;;;;;-0.88;100.00;101276.91;5023872;28;20116;-72
2022/12/19 09:41:40;;;;;;;56.30;20.27;;;;;;;-0.81;100.00;101289.72;5019708;28;20061;-71
2022/12/19 09:44:05;;;;;;;47.10;20.05;;;;;;;-0.79;100.00;101274.78;5019858;28;20295;-71
2022/12/19 09:46:47;;;;;;;38.23;19.23;;;;;;;-0.87;100.00;101260.28;5002446;28;20033;-71
2022/12/19 09:49:17;;;;;;;41.65;20.52;;;;;;;-0.86;100.00;101256.72;5010178;28;20041;-71
2022/12/19 09:51:51;;;;;;;45.88;21.40;;;;;;;-0.76;100.00;101266.75;5017910;28;20060;-71
2022/12/19 09:54:23;;;;;;;47.00;20.85;;;;;;;-0.73;100.00;101256.94;5008476;28;20137;-71
2022/12/19 09:56:56;;;;;;;51.72;21.52;;;;;;;-0.70;100.00;101251.56;5019530;28;20041;-71
2022/12/19 09:59:34;;;;;;;47.72;20.48;;;;;;;-0.73;100.00;101240.34;5005162;28;20037;-72
2022/12/19 10:02:24;;;;;;;47.17;21.88;;;;;;;-0.74;100.00;101230.81;5021294;28;20397;-72
2022/12/19 10:04:56;;;;;;;51.67;21.02;;;;;;;-0.71;100.00;101222.78;5017087;28;20041;-70
2022/12/19 10:07:22;;;;;;;47.08;19.58;;;;;;;-0.62;100.00;101224.09;5019942;28;20037;-70
2022/12/19 10:09:47;;;;;;;43.80;18.65;;;;;;;-0.59;100.00;101222.16;5017557;28;20033;-71
2022/12/19 10:12:18;;;;;;;50.95;21.38;;;;;;;-0.63;100.00;101231.13;5018352;28;20091;-71
2022/12/19 10:14:56;;;;;;;57.00;22.52;;;;;;;-0.56;100.00;101211.50;5000111;28;20136;-71
2022/12/19 10:17:28;;;;;;;52.47;22.00;;;;;;;-0.59;100.00;101211.66;5014729;28;20497;-71
2022/12/19 10:20:11;;;;;;;58.30;24.45;;;;;;;-0.58;100.00;101217.78;5016208;28;20554;-71
2022/12/19 10:23:08;;;;;;;45.67;19.75;;;;;;;-0.49;100.00;101212.88;5015645;28;20029;-71
2022/12/19 10:25:51;;;;;;;46.92;20.52;;;;;;;-0.47;100.00;101211.03;5015710;28;20029;-71
2022/12/19 10:28:35;;;;;;;50.22;19.77;;;;;;;-0.45;100.00;101201.28;5018939;28;20057;-70
2022/12/19 10:31:17;;;;;;;51.92;20.50;;;;;;;-0.40;100.00;101181.84;5011627;28;20037;-71
2022/12/19 10:34:05;;;;;;;45.55;19.10;;;;;;;-0.36;100.00;101186.00;5017165;28;20037;-71
2022/12/19 10:36:45;;;;;;;49.08;21.10;;;;;;;-0.38;100.00;101183.44;5015334;28;20509;-71
2022/12/19 10:39:37;;;;;;;48.35;19.25;;;;;;;-0.37;100.00;101173.81;5018104;28;20045;-72
2022/12/19 10:42:14;;;;;;;47.22;21.17;;;;;;;-0.30;100.00;101165.53;5021211;28;20037;-71
2022/12/19 10:44:44;;;;;;;47.33;20.42;;;;;;;-0.28;100.00;101166.31;5021996;28;20033;-72
2022/12/19 10:47:15;;;;;;;46.00;20.90;;;;;;;-0.22;100.00;101149.38;5023521;28;20037;-72
2022/12/19 10:49:41;;;;;;;40.33;19.25;;;;;;;-0.28;100.00;101144.44;5005233;28;20518;-72
2022/12/19 10:52:08;;;;;;;44.30;18.88;;;;;;;-0.11;100.00;101144.38;5017872;28;20014;-72
2022/12/19 10:54:36;;;;;;;43.13;19.17;;;;;;;-0.13;100.00;101145.41;4995861;28;20068;-72
2022/12/19 10:57:20;;;;;;;41.25;19.65;;;;;;;-0.20;100.00;101134.38;5015865;28;20030;-72
2022/12/19 10:59:55;;;;;;;44.60;19.10;;;;;;;-0.19;100.00;101129.97;5007402;28;20104;-72
2022/12/19 11:02:47;;;;;;;41.45;18.65;;;;;;;-0.17;100.00;101131.59;5014515;28;20487;-73
2022/12/19 11:05:49;;;;;;;45.13;19.88;;;;;;;-0.16;100.00;101117.56;5014297;28;20065;-72
2022/12/19 11:08:22;;;;;;;40.28;18.05;;;;;;;-0.09;100.00;101126.78;4991205;28;20415;-73
2022/12/19 11:11:13;;;;;;;38.72;18.58;;;;;;;-0.04;100.00;101114.25;4993613;28;20045;-73
2022/12/19 11:13:41;;;;;;;38.40;18.33;;;;;;;0.04;100.00;101105.09;4996676;28;20045;-72
2022/12/19 11:16:07;;;;;;;38.53;16.77;;;;;;;0.10;100.00;101110.00;5019199;28;20033;-72
2022/12/19 11:18:44;;;;;;;39.28;19.15;;;;;;;0.05;100.00;101097.13;5007580;28;20069;-73
2022/12/19 11:21:17;;;;;;;40.58;18.85;;;;;;;0.13;100.00;101088.81;5017873;28;20042;-73
2022/12/19 11:24:11;;;;;;;36.60;17.77;;;;;;;0.18;100.00;101094.66;4987838;28;20038;-73